createdAt,value
2023-04-29T00:01:06.212Z,10.87
2023-04-29T00:03:33.192Z,10.47
2023-04-29T00:06:00.742Z,11.53
2023-04-29T00:08:27.980Z,11.37
2023-04-29T00:10:54.768Z,11.07
2023-04-29T00:13:21.667Z,10.77
2023-04-29T00:15:48.485Z,10.87
2023-04-29T00:18:15.190Z,11.73
2023-04-29T00:20:42.434Z,11.93
2023-04-29T00:23:09.282Z,11.80
2023-04-29T00:25:36.273Z,11.67
2023-04-29T00:28:03.575Z,11.47
2023-04-29T00:30:31.274Z,11.07
2023-04-29T00:32:57.860Z,11.33
2023-04-29T00:35:24.461Z,11.17
2023-04-29T00:37:51.002Z,12.23
2023-04-29T00:40:17.751Z,12.30
2023-04-29T00:42:44.391Z,12.00
2023-04-29T00:45:11.748Z,11.77
2023-04-29T00:47:38.910Z,11.63
2023-04-29T00:53:14.893Z,12.67
2023-04-29T00:55:45.287Z,13.20
2023-04-29T00:58:12.398Z,11.90
2023-04-29T01:00:39.357Z,12.67
2023-04-29T01:03:06.561Z,12.63
2023-04-29T01:05:33.976Z,12.73
2023-04-29T01:08:18.306Z,12.33
2023-04-29T01:10:53.261Z,13.17
2023-04-29T01:13:35.219Z,12.10
2023-04-29T01:16:11.473Z,12.30
2023-04-29T01:18:50.758Z,12.50
2023-04-29T01:21:18.275Z,11.80
2023-04-29T01:23:45.936Z,12.50
2023-04-29T01:26:12.807Z,12.00
2023-04-29T01:29:02.475Z,12.17
2023-04-29T01:31:38.997Z,12.90
2023-04-29T01:34:13.894Z,12.83
2023-04-29T01:36:56.036Z,12.83
2023-04-29T01:39:33.383Z,13.13
2023-04-29T01:42:15.155Z,13.30
2023-04-29T01:44:43.773Z,12.80
2023-04-29T01:47:14.209Z,13.23
2023-04-29T01:49:41.060Z,12.83
2023-04-29T01:52:07.661Z,13.73
2023-04-29T01:54:36.958Z,13.27
2023-04-29T01:57:03.777Z,14.50
2023-04-29T01:59:31.691Z,14.83
2023-04-29T02:01:59.093Z,13.10
2023-04-29T02:04:26.186Z,14.77
2023-04-29T02:06:53.054Z,14.10
2023-04-29T02:09:19.837Z,13.60
2023-04-29T02:11:46.387Z,15.33
2023-04-29T02:14:12.952Z,14.73
2023-04-29T02:16:39.554Z,14.63
2023-04-29T02:19:06.364Z,13.57
2023-04-29T02:21:32.994Z,14.57
2023-04-29T02:23:59.519Z,13.57
2023-04-29T02:26:26.060Z,15.30
2023-04-29T02:28:52.737Z,15.17
2023-04-29T02:31:19.336Z,14.87
2023-04-29T02:33:45.998Z,15.03
2023-04-29T02:36:12.711Z,14.03
2023-04-29T02:38:39.240Z,15.07
2023-04-29T02:41:05.935Z,16.77
2023-04-29T02:43:32.642Z,14.80
2023-04-29T02:46:00.414Z,15.20
2023-04-29T02:48:27.227Z,14.87
2023-04-29T02:50:53.761Z,15.77
2023-04-29T02:53:21.121Z,15.27
2023-04-29T02:55:48.558Z,15.20
2023-04-29T02:58:15.208Z,22.07
2023-04-29T03:00:42.397Z,18.50
2023-04-29T03:03:09.121Z,16.77
2023-04-29T03:05:35.989Z,14.73
2023-04-29T03:08:04.310Z,15.53
2023-04-29T03:10:31.341Z,14.67
2023-04-29T03:12:57.999Z,14.70
2023-04-29T03:15:24.556Z,13.57
2023-04-29T03:17:51.215Z,13.47
2023-04-29T03:20:17.950Z,13.63
2023-04-29T03:22:44.563Z,14.00
2023-04-29T03:25:11.209Z,13.77
2023-04-29T03:27:37.806Z,14.27
2023-04-29T03:30:04.896Z,13.80
2023-04-29T03:32:31.444Z,14.87
2023-04-29T03:34:58.036Z,15.27
2023-04-29T03:37:24.603Z,14.57
2023-04-29T03:39:51.399Z,15.07
2023-04-29T03:42:18.276Z,15.37
2023-04-29T03:44:45.067Z,16.83
2023-04-29T03:47:11.784Z,15.40
2023-04-29T03:49:38.688Z,13.33
2023-04-29T03:52:05.409Z,15.60
2023-04-29T03:54:32.125Z,15.30
2023-04-29T03:56:58.736Z,15.23
2023-04-29T03:59:25.312Z,15.00
2023-04-29T04:01:54.364Z,15.00
2023-04-29T04:04:22.135Z,15.47
2023-04-29T04:06:52.108Z,14.97
2023-04-29T04:09:18.885Z,15.30
2023-04-29T04:11:46.004Z,16.47
2023-04-29T04:14:13.215Z,14.37
2023-04-29T04:16:39.955Z,15.53
2023-04-29T04:19:06.674Z,16.90
2023-04-29T04:21:33.399Z,15.03
2023-04-29T04:23:59.978Z,15.30
2023-04-29T04:26:26.547Z,15.77
2023-04-29T04:28:53.113Z,16.47
2023-04-29T04:31:19.784Z,15.47
2023-04-29T04:33:46.465Z,15.90
2023-04-29T04:36:13.585Z,14.90
2023-04-29T04:38:40.233Z,15.43
2023-04-29T04:41:08.285Z,15.33
2023-04-29T04:43:34.887Z,14.87
2023-04-29T04:46:09.666Z,14.10
2023-04-29T04:48:36.261Z,15.03
2023-04-29T04:51:13.199Z,15.57
2023-04-29T04:53:41.109Z,14.93
2023-04-29T04:56:08.602Z,15.83
2023-04-29T04:58:35.289Z,15.03
2023-04-29T05:01:02.761Z,15.13
2023-04-29T05:03:29.713Z,14.13
2023-04-29T05:05:57.652Z,14.20
2023-04-29T05:08:24.827Z,14.50
2023-04-29T05:10:51.760Z,13.93
2023-04-29T05:13:18.757Z,13.67
2023-04-29T05:15:45.947Z,14.07
2023-04-29T05:18:12.674Z,14.17
2023-04-29T05:20:39.262Z,13.17
2023-04-29T05:23:05.879Z,14.60
2023-04-29T05:25:32.476Z,12.40
2023-04-29T05:27:59.031Z,12.57
2023-04-29T05:30:25.918Z,12.27
2023-04-29T05:32:52.541Z,13.27
2023-04-29T05:35:19.143Z,12.57
2023-04-29T05:37:45.904Z,13.50
2023-04-29T05:40:12.845Z,11.70
2023-04-29T05:42:39.434Z,13.00
2023-04-29T05:45:06.601Z,11.47
2023-04-29T05:47:33.214Z,11.93
2023-04-29T05:49:59.860Z,11.47
2023-04-29T05:52:26.557Z,11.17
2023-04-29T05:54:53.322Z,10.83
2023-04-29T05:57:19.919Z,10.30
2023-04-29T05:59:46.665Z,9.80
2023-04-29T06:02:13.299Z,10.40
2023-04-29T06:04:41.914Z,11.33
2023-04-29T06:07:09.439Z,10.63
2023-04-29T06:09:36.773Z,11.00
2023-04-29T06:12:03.689Z,11.97
2023-04-29T06:14:30.346Z,10.07
2023-04-29T06:16:56.981Z,9.70
2023-04-29T06:19:25.218Z,9.20
2023-04-29T06:21:52.118Z,9.73
2023-04-29T06:24:18.744Z,8.50
2023-04-29T06:26:45.304Z,8.73
2023-04-29T06:29:12.433Z,8.83
2023-04-29T06:31:39.103Z,9.77
2023-04-29T06:34:05.744Z,12.50
2023-04-29T06:36:32.567Z,9.93
2023-04-29T06:38:59.550Z,9.63
2023-04-29T06:41:27.033Z,10.30
2023-04-29T06:43:53.664Z,8.87
2023-04-29T06:46:20.301Z,8.90
2023-04-29T06:48:46.866Z,9.53
2023-04-29T06:51:13.562Z,9.30
2023-04-29T06:53:40.180Z,8.27
2023-04-29T06:56:07.419Z,9.20
2023-04-29T06:58:33.989Z,8.37
2023-04-29T07:01:00.671Z,8.43
2023-04-29T07:03:27.583Z,9.13
2023-04-29T07:05:54.221Z,8.63
2023-04-29T07:08:21.090Z,9.40
2023-04-29T07:10:59.110Z,8.53
2023-04-29T07:13:26.774Z,16.87
2023-04-29T07:15:53.745Z,8.23
2023-04-29T07:18:20.308Z,10.77
2023-04-29T07:20:48.190Z,9.23
2023-04-29T07:23:15.360Z,7.03
2023-04-29T07:25:42.011Z,6.57
2023-04-29T07:28:09.316Z,6.03
2023-04-29T07:30:36.602Z,5.63
2023-04-29T07:33:04.650Z,5.93
2023-04-29T07:35:31.845Z,6.50
2023-04-29T07:37:58.512Z,5.87
2023-04-29T07:40:25.154Z,6.07
2023-04-29T07:42:51.941Z,6.37
2023-04-29T07:45:18.576Z,6.27
2023-04-29T07:47:46.055Z,6.03
2023-04-29T07:50:12.915Z,6.47
2023-04-29T07:52:39.572Z,6.97
2023-04-29T07:55:06.501Z,6.10
2023-04-29T07:57:33.096Z,13.60
2023-04-29T07:59:59.908Z,7.30
2023-04-29T08:02:26.658Z,6.37
2023-04-29T08:04:55.124Z,6.50
2023-04-29T08:07:22.371Z,6.60
2023-04-29T08:09:49.051Z,6.37
2023-04-29T08:12:15.813Z,6.07
2023-04-29T08:14:42.625Z,6.10
2023-04-29T08:17:09.201Z,9.07
2023-04-29T08:19:36.100Z,6.50
2023-04-29T08:22:04.521Z,6.60
2023-04-29T08:24:31.326Z,6.23
2023-04-29T08:26:59.125Z,5.43
2023-04-29T08:29:25.763Z,5.63
2023-04-29T08:31:52.382Z,5.90
2023-04-29T08:34:18.992Z,5.60
2023-04-29T08:36:45.812Z,5.43
2023-04-29T08:39:12.352Z,5.57
2023-04-29T08:41:39.524Z,6.23
2023-04-29T08:44:06.282Z,5.70
2023-04-29T08:46:33.269Z,5.80
2023-04-29T08:49:03.097Z,6.53
2023-04-29T08:51:32.252Z,6.50
2023-04-29T08:53:59.378Z,6.60
2023-04-29T08:56:28.143Z,6.13
2023-04-29T08:58:58.300Z,6.83
2023-04-29T09:01:29.829Z,7.07
2023-04-29T09:04:25.197Z,6.10
2023-04-29T09:06:53.078Z,6.70
2023-04-29T09:09:21.078Z,7.00
2023-04-29T09:11:47.906Z,7.40
2023-04-29T09:14:15.434Z,7.17
2023-04-29T09:16:42.306Z,7.47
2023-04-29T09:19:09.014Z,7.53
2023-04-29T09:21:35.812Z,6.60
2023-04-29T09:24:04.056Z,6.93
2023-04-29T09:26:44.034Z,6.77
2023-04-29T09:29:15.442Z,7.70
2023-04-29T09:31:42.696Z,6.83
2023-04-29T09:34:10.063Z,6.60
2023-04-29T09:36:42.637Z,6.03
2023-04-29T09:39:13.870Z,6.93
2023-04-29T09:41:42.667Z,6.50
2023-04-29T09:44:10.677Z,6.90
2023-04-29T09:46:37.902Z,6.73
2023-04-29T09:49:05.363Z,6.80
2023-04-29T09:51:34.621Z,6.33
2023-04-29T09:54:03.123Z,6.20
2023-04-29T09:56:49.347Z,6.10
2023-04-29T09:59:16.411Z,6.20
2023-04-29T10:01:43.377Z,5.20
2023-04-29T10:04:11.976Z,5.27
2023-04-29T10:06:42.571Z,5.10
2023-04-29T10:09:13.706Z,5.53
2023-04-29T10:11:40.930Z,5.20
2023-04-29T10:14:12.133Z,5.67
2023-04-29T10:16:46.812Z,5.50
2023-04-29T10:19:19.715Z,5.10
2023-04-29T10:21:50.065Z,5.17
2023-04-29T10:24:19.346Z,5.87
2023-04-29T10:26:47.261Z,5.43
2023-04-29T10:29:15.770Z,5.37
2023-04-29T10:31:44.587Z,5.60
2023-04-29T10:34:13.142Z,5.10
2023-04-29T10:36:40.248Z,5.03
2023-04-29T10:39:13.341Z,5.10
2023-04-29T10:41:47.911Z,5.67
2023-04-29T10:44:14.956Z,4.67
2023-04-29T10:46:41.690Z,4.63
2023-04-29T10:49:10.808Z,4.70
2023-04-29T10:51:45.469Z,5.20
2023-04-29T10:54:25.498Z,5.43
2023-04-29T10:56:54.472Z,5.20
2023-04-29T10:59:42.209Z,5.87
2023-04-29T11:02:10.579Z,5.97
2023-04-29T11:05:10.302Z,5.03
2023-04-29T11:07:37.080Z,5.70
2023-04-29T11:10:04.237Z,4.68
2023-04-29T11:12:31.113Z,4.25
2023-04-29T11:15:04.939Z,4.35
2023-04-29T11:17:39.058Z,4.10
2023-04-29T11:20:13.590Z,5.30
2023-04-29T11:22:40.339Z,4.78
2023-04-29T11:25:07.704Z,4.00
2023-04-29T11:27:36.205Z,4.80
2023-04-29T11:30:05.910Z,4.85
2023-04-29T11:32:36.146Z,4.70
2023-04-29T11:35:13.533Z,4.75
2023-04-29T11:37:42.603Z,5.15
2023-04-29T11:40:10.946Z,5.28
2023-04-29T11:42:49.520Z,5.15
2023-04-29T11:45:20.089Z,5.07
2023-04-29T11:47:48.421Z,5.50
2023-04-29T11:50:20.144Z,4.40
2023-04-29T11:52:48.813Z,4.90
2023-04-29T11:55:15.903Z,4.95
2023-04-29T11:57:42.691Z,4.30
2023-04-29T12:00:14.043Z,4.85
2023-04-29T12:02:44.976Z,4.55
2023-04-29T12:05:13.521Z,4.00
2023-04-29T12:07:40.534Z,4.50
2023-04-29T12:10:11.672Z,4.47
2023-04-29T12:12:41.025Z,3.92
2023-04-29T12:15:09.855Z,4.40
2023-04-29T12:17:36.784Z,3.75
2023-04-29T12:20:04.425Z,4.75
2023-04-29T12:22:34.692Z,3.38
2023-04-29T12:25:04.285Z,5.30
2023-04-29T12:27:30.929Z,3.17
2023-04-29T12:29:57.997Z,3.30
2023-04-29T12:32:25.864Z,3.30
2023-04-29T12:34:53.292Z,3.53
2023-04-29T12:37:22.100Z,3.53
2023-04-29T12:39:50.572Z,3.00
2023-04-29T12:42:17.355Z,2.75
2023-04-29T12:44:47.861Z,2.28
2023-04-29T12:47:16.411Z,2.70
2023-04-29T12:49:49.356Z,2.40
2023-04-29T12:52:16.001Z,2.60
2023-04-29T12:54:44.066Z,2.17
2023-04-29T12:57:12.166Z,2.10
2023-04-29T12:59:40.078Z,2.42
2023-04-29T13:02:06.726Z,2.80
2023-04-29T13:04:33.511Z,2.60
2023-04-29T13:07:00.883Z,2.50
2023-04-29T13:09:27.592Z,3.00
2023-04-29T13:11:54.308Z,2.75
2023-04-29T13:14:21.547Z,3.53
2023-04-29T13:16:48.306Z,3.63
2023-04-29T13:19:32.007Z,4.95
2023-04-29T13:22:02.141Z,5.38
2023-04-29T13:24:28.760Z,3.30
2023-04-29T13:26:55.410Z,3.55
2023-04-29T13:29:22.114Z,3.30
2023-04-29T13:31:48.919Z,2.90
2023-04-29T13:34:15.669Z,3.20
2023-04-29T13:36:42.308Z,3.10
2023-04-29T13:39:09.025Z,3.60
2023-04-29T13:41:35.862Z,2.45
2023-04-29T13:44:03.013Z,2.40
2023-04-29T13:46:32.718Z,2.22
2023-04-29T13:54:48.212Z,1.58
2023-04-29T13:59:40.136Z,1.55
2023-04-29T14:04:31.891Z,1.50
2023-04-29T14:06:58.552Z,1.67
2023-04-29T14:09:25.264Z,1.50
2023-04-29T14:11:52.366Z,1.58
2023-04-29T14:14:20.179Z,1.80
2023-04-29T14:16:46.977Z,1.30
2023-04-29T14:19:14.097Z,1.40
2023-04-29T14:21:40.728Z,2.08
2023-04-29T14:24:07.289Z,1.88
2023-04-29T14:26:34.060Z,1.48
2023-04-29T14:29:01.268Z,3.13
2023-04-29T14:31:29.553Z,1.80
2023-04-29T14:33:59.597Z,1.98
2023-04-29T14:36:29.692Z,1.52
2023-04-29T14:38:56.389Z,1.35
2023-04-29T14:41:23.039Z,1.10
2023-04-29T14:43:49.865Z,1.00
2023-04-29T14:46:16.919Z,1.23
2023-04-29T14:48:43.877Z,1.13
2023-04-29T14:51:10.912Z,1.10
2023-04-29T14:53:37.489Z,1.50
2023-04-29T14:56:04.140Z,1.20
2023-04-29T14:58:31.034Z,1.35
2023-04-29T15:00:57.686Z,1.60
2023-04-29T15:03:24.423Z,1.27
2023-04-29T15:05:51.798Z,1.50
2023-04-29T15:08:19.331Z,1.45
2023-04-29T15:10:50.177Z,1.38
2023-04-29T15:13:16.908Z,1.48
2023-04-29T15:15:43.641Z,1.30
2023-04-29T15:18:10.461Z,1.20
2023-04-29T15:20:37.769Z,1.35
2023-04-29T15:23:05.643Z,0.93
2023-04-29T15:25:36.196Z,0.90
2023-04-29T15:28:05.063Z,1.40
2023-04-29T15:30:32.049Z,1.38
2023-04-29T15:32:58.759Z,1.50
2023-04-29T15:35:25.423Z,1.10
2023-04-29T15:37:51.956Z,0.93
2023-04-29T15:40:18.602Z,2.40
2023-04-29T15:42:45.241Z,1.17
2023-04-29T15:45:12.093Z,1.20
2023-04-29T15:47:38.961Z,1.17
2023-04-29T15:50:06.428Z,1.40
2023-04-29T15:52:32.998Z,2.00
2023-04-29T15:54:59.790Z,1.52
2023-04-29T15:57:26.947Z,1.88
2023-04-29T15:59:53.665Z,2.10
2023-04-29T16:02:21.408Z,1.65
2023-04-29T16:04:48.253Z,1.73
2023-04-29T16:07:15.076Z,1.80
2023-04-29T16:09:42.487Z,1.70
2023-04-29T16:12:11.757Z,1.75
2023-04-29T16:14:38.391Z,1.77
2023-04-29T16:17:05.901Z,2.20
2023-04-29T16:19:35.130Z,1.77
2023-04-29T16:22:03.405Z,1.83
2023-04-29T16:24:30.221Z,1.50
2023-04-29T16:26:56.900Z,1.30
2023-04-29T16:29:23.660Z,2.10
2023-04-29T16:31:50.479Z,2.40
2023-04-29T16:34:17.261Z,1.97
2023-04-29T16:36:43.918Z,2.30
2023-04-29T16:39:10.596Z,2.20
2023-04-29T16:41:37.943Z,2.67
2023-04-29T16:44:04.854Z,1.90
2023-04-29T16:46:35.083Z,2.07
2023-04-29T16:49:01.822Z,1.87
2023-04-29T16:51:29.366Z,2.50
2023-04-29T16:53:56.216Z,2.20
2023-04-29T16:56:22.862Z,2.13
2023-04-29T16:58:49.565Z,2.93
2023-04-29T17:01:16.494Z,2.90
2023-04-29T17:03:43.252Z,3.47
2023-04-29T17:06:10.024Z,3.33
2023-04-29T17:08:36.778Z,4.00
2023-04-29T17:11:05.209Z,3.60
2023-04-29T17:13:32.121Z,3.27
2023-04-29T17:15:59.118Z,2.63
2023-04-29T17:18:25.993Z,3.03
2023-04-29T17:20:52.648Z,2.97
2023-04-29T17:23:19.641Z,2.53
2023-04-29T17:25:46.619Z,2.77
2023-04-29T17:28:13.215Z,2.50
2023-04-29T17:30:39.794Z,2.40
2023-04-29T17:33:06.479Z,2.30
2023-04-29T17:35:33.858Z,2.13
2023-04-29T17:38:00.792Z,1.93
2023-04-29T17:40:27.650Z,2.57
2023-04-29T17:42:54.308Z,2.20
2023-04-29T17:45:20.962Z,2.17
2023-04-29T17:47:48.493Z,2.10
2023-04-29T17:50:15.300Z,3.03
2023-04-29T17:52:42.844Z,2.73
2023-04-29T17:55:10.197Z,2.33
2023-04-29T17:57:38.299Z,3.17
2023-04-29T18:00:07.531Z,2.93
2023-04-29T18:02:34.712Z,2.70
2023-04-29T18:05:03.310Z,3.10
2023-04-29T18:07:29.981Z,2.70
2023-04-29T18:09:58.925Z,2.80
2023-04-29T18:12:25.745Z,2.77
2023-04-29T18:14:52.451Z,2.63
2023-04-29T18:17:19.525Z,2.57
2023-04-29T18:19:50.082Z,2.80
2023-04-29T18:22:16.947Z,3.50
2023-04-29T18:24:43.856Z,2.73
2023-04-29T18:27:10.670Z,2.43
2023-04-29T18:29:37.289Z,1.90
2023-04-29T18:32:06.407Z,1.90
2023-04-29T18:34:34.544Z,2.30
2023-04-29T18:37:01.956Z,2.23
2023-04-29T18:39:28.752Z,2.27
2023-04-29T18:41:55.516Z,3.53
2023-04-29T18:44:22.232Z,4.90
2023-04-29T18:46:48.847Z,5.53
2023-04-29T18:49:17.144Z,2.70
2023-04-29T18:51:47.000Z,2.37
2023-04-29T18:54:18.032Z,2.60
2023-04-29T18:56:47.149Z,2.80
2023-04-29T18:59:19.590Z,2.10
2023-04-29T19:01:48.067Z,2.30
2023-04-29T19:04:15.340Z,2.17
2023-04-29T19:06:42.772Z,2.37
2023-04-29T19:09:09.594Z,2.67
2023-04-29T19:11:36.387Z,2.30
2023-04-29T19:14:04.302Z,2.27
2023-04-29T19:16:30.950Z,2.80
2023-04-29T19:18:57.789Z,2.00
2023-04-29T19:21:24.586Z,2.30
2023-04-29T19:23:51.261Z,1.97
2023-04-29T19:26:18.313Z,2.23
2023-04-29T19:28:45.523Z,2.63
2023-04-29T19:31:12.404Z,3.47
2023-04-29T19:33:38.989Z,3.00
2023-04-29T19:36:05.662Z,2.77
2023-04-29T19:38:32.389Z,60.83
2023-04-29T19:40:59.108Z,7.93
2023-04-29T19:43:25.658Z,3.83
2023-04-29T19:45:52.257Z,2.20
2023-04-29T19:48:20.071Z,2.03
2023-04-29T19:50:46.682Z,2.40
2023-04-29T19:53:13.316Z,2.43
2023-04-29T19:55:44.939Z,2.67
2023-04-29T19:58:11.804Z,2.47
2023-04-29T20:00:38.487Z,2.97
2023-04-29T20:03:05.172Z,2.37
2023-04-29T20:05:31.769Z,2.37
2023-04-29T20:07:58.525Z,2.33
2023-04-29T20:10:26.827Z,2.80
2023-04-29T20:12:55.643Z,2.23
2023-04-29T20:15:22.207Z,1.97
2023-04-29T20:17:48.910Z,2.43
2023-04-29T20:20:15.678Z,2.90
2023-04-29T20:22:42.325Z,3.13
2023-04-29T20:25:09.147Z,2.93
2023-04-29T20:27:36.041Z,2.80
2023-04-29T20:30:03.016Z,2.57
2023-04-29T20:32:29.825Z,3.93
2023-04-29T20:34:56.460Z,2.63
2023-04-29T20:37:23.409Z,2.50
2023-04-29T20:39:50.088Z,2.50
2023-04-29T20:42:17.204Z,3.00
2023-04-29T20:44:44.265Z,2.40
2023-04-29T20:47:10.990Z,2.70
2023-04-29T20:49:37.794Z,2.90
2023-04-29T20:52:06.554Z,3.23
2023-04-29T20:54:33.990Z,2.40
2023-04-29T20:57:01.105Z,2.97
2023-04-29T20:59:28.012Z,2.63
2023-04-29T21:01:54.751Z,2.47
2023-04-29T21:04:21.366Z,3.00
2023-04-29T21:06:47.972Z,2.40
2023-04-29T21:09:14.609Z,2.87
2023-04-29T21:11:41.231Z,2.70
2023-04-29T21:14:07.953Z,11.67
2023-04-29T21:16:35.372Z,5.13
2023-04-29T21:19:02.150Z,2.40
2023-04-29T21:21:28.840Z,2.70
2023-04-29T21:23:55.375Z,2.73
2023-04-29T21:26:22.476Z,3.27
2023-04-29T21:28:49.422Z,3.93
2023-04-29T21:31:16.679Z,3.07
2023-04-29T21:33:44.455Z,2.70
2023-04-29T21:36:11.818Z,3.00
2023-04-29T21:38:38.531Z,3.17
2023-04-29T21:41:05.931Z,3.87
2023-04-29T21:43:33.486Z,2.77
2023-04-29T21:46:00.658Z,3.30
2023-04-29T21:48:27.651Z,3.03
2023-04-29T21:50:54.220Z,3.13
2023-04-29T21:53:21.063Z,3.50
2023-04-29T21:55:48.067Z,3.50
2023-04-29T21:58:18.682Z,3.10
2023-04-29T22:00:58.154Z,2.90
2023-04-29T22:03:25.187Z,3.27
2023-04-29T22:05:51.868Z,3.57
2023-04-29T22:08:18.566Z,3.67
2023-04-29T22:10:45.192Z,3.27
2023-04-29T22:13:11.936Z,3.30
2023-04-29T22:15:38.755Z,3.57
2023-04-29T22:18:05.820Z,3.13
2023-04-29T22:20:32.788Z,3.10
2023-04-29T22:22:59.792Z,3.43
2023-04-29T22:25:26.389Z,3.27
2023-04-29T22:27:53.110Z,3.03
2023-04-29T22:30:20.889Z,3.73
2023-04-29T22:32:47.566Z,3.73
2023-04-29T22:35:14.245Z,3.33
2023-04-29T22:37:44.096Z,3.80
2023-04-29T22:40:12.089Z,3.13
2023-04-29T22:42:39.804Z,3.23
2023-04-29T22:45:07.126Z,3.13
2023-04-29T22:47:33.711Z,3.10
2023-04-29T22:50:00.543Z,3.50
2023-04-29T22:52:27.669Z,3.90
2023-04-29T22:54:54.234Z,3.23
2023-04-29T22:57:20.974Z,2.80
2023-04-29T22:59:48.017Z,3.07
2023-04-29T23:02:14.864Z,3.37
2023-04-29T23:04:41.401Z,3.03
2023-04-29T23:07:08.017Z,3.40
2023-04-29T23:09:34.588Z,3.10
2023-04-29T23:12:02.511Z,3.63
2023-04-29T23:14:29.692Z,3.37
2023-04-29T23:16:56.432Z,4.10
2023-04-29T23:19:26.938Z,3.53
2023-04-29T23:21:53.508Z,4.47
2023-04-29T23:24:20.053Z,4.13
2023-04-29T23:26:46.729Z,3.90
2023-04-29T23:29:13.307Z,3.97
2023-04-29T23:31:39.951Z,3.80
2023-04-29T23:34:07.988Z,3.83
2023-04-29T23:36:34.646Z,4.90
2023-04-29T23:39:01.285Z,3.83
2023-04-29T23:41:28.108Z,4.50
2023-04-29T23:43:54.985Z,4.13
2023-04-29T23:46:21.597Z,4.37
2023-04-29T23:48:48.260Z,4.17
2023-04-29T23:51:14.850Z,4.40
2023-04-29T23:53:41.426Z,3.77
2023-04-29T23:56:08.097Z,4.87
2023-04-29T23:58:34.674Z,4.27
